Raymondville, New York
Current Conditions -  °F | °C
As of 11:04 PM on Saturday 20 Dec 2014 (Local Time) from KMSS Reporting Station
Haze Haze  
Wind Chill:   Ceiling: 2000
Heat Index: 14°   Visibility: 5mi
Dew Point: 11°   Wind: 8mph
Humidity: 88%   Direction: 50°NE
Pressure: 30.35"   Gusts: NA
Location:  44.84°N, 74.97°W
Report Text: KMSS 210404Z AUTO 05007KT 5SM BR SCT005 BKN020 M10/M12 A3035 RMK AO2 T11001117
Loading
Personal Weather Stations






























Interactive Weather Map New forecast layout! Learn more

10-Day Weather Forecast

Advertisements
Track Severe Weather on mobile